Newman Grove, Nebraska
Current Conditions -  °F | °C
As of 1:55 AM on Monday 24 Nov 2014 (Local Time) from KBVN Reporting Station
Overcast Overcast  
Wind Chill: 18°   Ceiling: 2800
Heat Index: 31°   Visibility: 10mi
Dew Point: 20°   Wind: 24mph
Humidity: 64%   Direction: 320°NW
Pressure: 29.59"   Gusts: 36mph
Location:  41.75°N, 97.78°W
Report Text: KBVN 240755Z AUTO 32021G31KT 10SM OVC028 00/M07 A2959 RMK AO2 T10051066
Loading
Personal Weather Stations






























Interactive Weather Map New forecast layout! Learn more

10-Day Weather Forecast

Advertisements
Track Severe Weather on mobile